Time;durP1;ratioP1;P1;durP2;ratioP2;P2;SDS_P1;SDS_P2;PMS_P1;PMS_P2;Temp;Humidity;BMP_temperature;BMP_pressure;BME280_temperature;BME280_humidity;BME280_pressure;Samples;Min_cycle;Max_cycle;Signal;HPM_P1;HPM_P2
2022/01/09 00:00:37;;;;;;;24.20;12.70;;;;;3.50;96641.60;;;;111891;1242;41105;-67
2022/01/09 00:03:10;;;;;;;27.00;13.30;;;;;3.50;96641.00;;;;111836;1241;41247;-65
2022/01/09 00:05:39;;;;;;;27.70;13.60;;;;;3.50;96643.00;;;;111756;1243;41130;-67
2022/01/09 00:08:08;;;;;;;25.20;13.10;;;;;3.50;96642.20;;;;111609;1243;41186;-65
2022/01/09 00:10:45;;;;;;;26.30;13.00;;;;;3.50;96634.60;;;;111677;1241;41246;-65
2022/01/09 00:13:14;;;;;;;25.90;12.70;;;;;3.60;96628.40;;;;111681;1242;41322;-65
2022/01/09 00:15:44;;;;;;;24.70;13.20;;;;;3.60;96628.00;;;;111847;1243;41136;-67
2022/01/09 00:18:14;;;;;;;25.20;12.70;;;;;3.60;96628.80;;;;111827;1243;41917;-68
2022/01/09 00:20:44;;;;;;;27.10;13.90;;;;;3.58;96624.60;;;;111722;1244;41250;-68
2022/01/09 00:23:14;;;;;;;32.90;15.20;;;;;3.52;96625.00;;;;111750;1243;41893;-65
2022/01/09 00:25:44;;;;;;;27.10;13.80;;;;;3.50;96620.80;;;;111821;1243;41975;-66
2022/01/09 00:28:13;;;;;;;30.50;15.40;;;;;3.50;96617.80;;;;111826;1243;41706;-67
2022/01/09 00:30:42;;;;;;;28.60;15.40;;;;;3.40;96626.40;;;;111872;1243;41153;-66
2022/01/09 00:33:12;;;;;;;26.60;14.60;;;;;3.40;96621.60;;;;111896;1241;42374;-67
2022/01/09 00:35:42;;;;;;;29.40;14.50;;;;;3.30;96619.60;;;;111877;1241;41125;-67
2022/01/09 00:38:11;;;;;;;25.40;13.40;;;;;3.30;96617.60;;;;111853;1241;41699;-66
2022/01/09 00:40:41;;;;;;;25.30;13.10;;;;;3.30;96608.80;;;;111844;1241;41264;-66
2022/01/09 00:43:10;;;;;;;32.20;17.40;;;;;3.30;96608.60;;;;111899;1241;41916;-67
2022/01/09 00:45:41;;;;;;;31.80;17.20;;;;;3.30;96613.00;;;;111602;1243;41145;-66
2022/01/09 00:48:11;;;;;;;35.00;18.10;;;;;3.28;96609.60;;;;111857;1241;41744;-68
2022/01/09 00:50:41;;;;;;;41.30;19.20;;;;;3.22;96607.40;;;;111814;1241;41350;-70
2022/01/09 00:53:10;;;;;;;33.50;17.70;;;;;3.20;96606.20;;;;111867;1242;41155;-68
2022/01/09 00:55:40;;;;;;;33.80;17.80;;;;;3.18;96608.40;;;;111816;1241;41115;-69
2022/01/09 00:58:09;;;;;;;33.00;17.30;;;;;3.10;96612.80;;;;111713;1242;41702;-67
2022/01/09 01:00:39;;;;;;;32.60;16.80;;;;;3.10;96604.80;;;;111863;1241;41236;-65
2022/01/09 01:03:08;;;;;;;36.20;18.40;;;;;3.10;96601.20;;;;111757;1241;41142;-69
2022/01/09 01:05:38;;;;;;;34.80;18.70;;;;;3.00;96597.40;;;;111785;1242;41139;-69
2022/01/09 01:08:07;;;;;;;37.50;20.00;;;;;3.00;96599.60;;;;111798;1241;42330;-68
2022/01/09 01:10:37;;;;;;;38.90;21.00;;;;;2.96;96600.20;;;;111620;1241;41121;-69
2022/01/09 01:13:06;;;;;;;39.30;20.90;;;;;2.90;96601.20;;;;111678;1241;42219;-68
2022/01/09 01:15:36;;;;;;;37.80;18.20;;;;;2.90;96600.00;;;;111874;1241;41518;-68
2022/01/09 01:18:06;;;;;;;36.80;19.50;;;;;2.80;96600.00;;;;111738;1241;41208;-66
2022/01/09 01:20:36;;;;;;;40.80;20.50;;;;;2.80;96598.00;;;;111653;1241;41148;-67
2022/01/09 01:23:06;;;;;;;45.40;20.10;;;;;2.80;96600.60;;;;111481;1242;41256;-65
2022/01/09 01:25:36;;;;;;;37.10;18.40;;;;;2.70;96605.60;;;;111745;1241;42358;-67
2022/01/09 01:28:05;;;;;;;34.30;18.20;;;;;2.62;96596.60;;;;111806;1241;41713;-67
2022/01/09 01:30:35;;;;;;;35.70;17.60;;;;;2.60;96600.00;;;;111826;1242;41716;-69
2022/01/09 01:33:04;;;;;;;32.20;16.50;;;;;2.60;96601.60;;;;111693;1241;41936;-67
2022/01/09 01:35:34;;;;;;;32.70;16.80;;;;;2.52;96599.20;;;;111760;1242;41520;-69
2022/01/09 01:38:03;;;;;;;30.60;16.80;;;;;2.50;96597.20;;;;111742;1240;41369;-66
2022/01/09 01:40:33;;;;;;;37.10;18.90;;;;;2.50;96597.40;;;;111771;1241;41636;-66
2022/01/09 01:43:03;;;;;;;35.50;18.80;;;;;2.50;96591.40;;;;111821;1241;41289;-66
2022/01/09 01:45:33;;;;;;;35.10;17.80;;;;;2.50;96590.60;;;;111843;1241;41171;-65
2022/01/09 01:48:06;;;;;;;34.30;18.60;;;;;2.42;96584.80;;;;111784;1242;41120;-67
2022/01/09 01:50:38;;;;;;;32.90;17.00;;;;;2.40;96587.60;;;;111586;1242;41952;-66
2022/01/09 01:53:12;;;;;;;31.30;17.10;;;;;2.40;96584.20;;;;111798;1241;41118;-68
2022/01/09 01:55:42;;;;;;;34.90;17.60;;;;;2.40;96583.20;;;;111786;1244;41190;-66
2022/01/09 01:58:12;;;;;;;31.20;17.00;;;;;2.40;96582.40;;;;111517;1244;41619;-67
2022/01/09 02:00:42;;;;;;;34.80;18.00;;;;;2.50;96578.00;;;;111756;1242;41115;-67
2022/01/09 02:03:12;;;;;;;34.40;17.60;;;;;2.50;96578.60;;;;111805;1242;41604;-69
2022/01/09 02:05:44;;;;;;;29.40;16.50;;;;;2.42;96581.20;;;;111775;1242;41832;-67
2022/01/09 02:08:13;;;;;;;30.70;15.60;;;;;2.40;96582.60;;;;111813;1241;41129;-67
2022/01/09 02:10:48;;;;;;;27.90;15.30;;;;;2.40;96575.40;;;;111786;1240;41467;-68
2022/01/09 02:13:19;;;;;;;30.80;15.40;;;;;2.40;96572.80;;;;111767;1241;41323;-66
2022/01/09 02:15:48;;;;;;;27.20;13.80;;;;;2.40;96571.60;;;;111606;1244;41146;-66
2022/01/09 02:18:21;;;;;;;27.40;14.20;;;;;2.50;96561.60;;;;111811;1241;41612;-67
2022/01/09 02:20:52;;;;;;;28.00;14.50;;;;;2.50;96565.00;;;;111771;1244;41131;-68
2022/01/09 02:23:21;;;;;;;31.90;16.30;;;;;2.50;96560.40;;;;111933;1242;41243;-67
2022/01/09 02:25:51;;;;;;;28.70;15.10;;;;;2.50;96563.60;;;;111849;1241;41206;-67
2022/01/09 02:28:21;;;;;;;26.50;13.60;;;;;2.40;96549.60;;;;111694;1241;41595;-66
2022/01/09 02:30:52;;;;;;;30.30;16.60;;;;;2.44;96550.20;;;;111681;1242;41192;-68
2022/01/09 02:33:21;;;;;;;26.00;14.90;;;;;2.40;96550.00;;;;111694;1242;41813;-67
2022/01/09 02:35:52;;;;;;;29.50;13.80;;;;;2.40;96545.60;;;;111801;1241;41421;-66
2022/01/09 02:38:22;;;;;;;26.90;15.40;;;;;2.40;96543.60;;;;111744;1244;41140;-66
2022/01/09 02:40:53;;;;;;;26.00;15.30;;;;;2.40;96538.40;;;;111804;1241;41145;-66
2022/01/09 02:43:24;;;;;;;27.10;13.80;;;;;2.40;96537.40;;;;111760;1243;42053;-66
2022/01/09 02:46:09;;;;;;;28.60;14.50;;;;;2.30;96538.20;;;;111795;1243;41648;-67
2022/01/09 02:48:39;;;;;;;26.00;14.50;;;;;2.30;96537.20;;;;111857;1241;41150;-67
2022/01/09 02:51:13;;;;;;;25.00;13.40;;;;;2.30;96537.20;;;;111839;1241;42226;-66
2022/01/09 02:53:47;;;;;;;23.50;12.30;;;;;2.20;96529.80;;;;111805;1241;42291;-67
2022/01/09 02:56:17;;;;;;;25.80;12.10;;;;;2.20;96525.60;;;;111769;1244;41327;-68
2022/01/09 02:58:46;;;;;;;23.20;11.80;;;;;2.20;96522.00;;;;111930;1241;41625;-68
2022/01/09 03:01:16;;;;;;;26.80;12.70;;;;;2.20;96525.00;;;;111795;1242;41540;-67
2022/01/09 03:03:45;;;;;;;21.90;12.30;;;;;2.16;96519.20;;;;111979;1241;42084;-67
2022/01/09 03:06:15;;;;;;;23.80;13.30;;;;;2.10;96521.60;;;;111836;1241;42286;-65
2022/01/09 03:08:45;;;;;;;24.50;12.30;;;;;2.10;96521.40;;;;111749;1241;41271;-67
2022/01/09 03:11:15;;;;;;;26.90;13.70;;;;;2.10;96524.80;;;;111813;1243;41134;-67
2022/01/09 03:13:44;;;;;;;24.70;12.80;;;;;2.10;96521.00;;;;111848;1241;41126;-67
2022/01/09 03:16:14;;;;;;;24.50;13.70;;;;;2.10;96524.60;;;;111706;1240;41295;-66
2022/01/09 03:18:45;;;;;;;;;;;;;2.00;96525.40;;;;111657;1241;41326;-65
2022/01/09 03:21:15;;;;;;;23.10;12.30;;;;;2.00;96520.80;;;;111596;1244;41480;-66
2022/01/09 03:23:45;;;;;;;26.10;14.10;;;;;2.00;96521.40;;;;111662;1244;41581;-66
2022/01/09 03:26:14;;;;;;;23.50;12.30;;;;;2.00;96524.40;;;;111745;1241;41133;-66
2022/01/09 03:28:44;;;;;;;20.10;11.00;;;;;2.00;96515.20;;;;111823;1242;41720;-67
2022/01/09 03:31:14;;;;;;;22.10;11.90;;;;;2.00;96507.20;;;;111812;1241;41257;-65
2022/01/09 03:33:44;;;;;;;22.00;12.00;;;;;2.02;96507.40;;;;111797;1243;41400;-66
2022/01/09 03:36:14;;;;;;;23.10;11.40;;;;;2.10;96504.40;;;;111857;1242;41153;-67
2022/01/09 03:38:43;;;;;;;20.90;10.80;;;;;2.10;96502.80;;;;111977;1241;41172;-67
2022/01/09 03:41:18;;;;;;;20.60;11.00;;;;;2.10;96500.00;;;;111930;1241;41136;-66
2022/01/09 03:43:53;;;;;;;21.10;10.20;;;;;2.16;96498.20;;;;111837;1242;41137;-66
2022/01/09 03:46:24;;;;;;;22.10;10.80;;;;;2.20;96494.60;;;;111839;1241;41118;-66
2022/01/09 03:48:53;;;;;;;22.00;11.10;;;;;2.20;96494.00;;;;111853;1241;41669;-68
2022/01/09 03:51:26;;;;;;;19.80;11.20;;;;;2.20;96493.20;;;;111797;1241;41312;-66
2022/01/09 03:53:56;;;;;;;20.10;10.90;;;;;2.20;96489.60;;;;111608;1242;41148;-66
2022/01/09 03:56:26;;;;;;;21.50;12.00;;;;;2.20;96494.00;;;;111727;1242;41811;-67
2022/01/09 03:58:56;;;;;;;23.10;12.10;;;;;2.20;96499.80;;;;111807;1241;41161;-66
2022/01/09 04:01:26;;;;;;;23.50;12.90;;;;;2.20;96502.80;;;;111858;1241;41606;-68
2022/01/09 04:03:56;;;;;;;21.60;11.20;;;;;2.14;96500.00;;;;111953;1241;41142;-67
2022/01/09 04:06:26;;;;;;;24.10;12.40;;;;;2.10;96504.20;;;;111942;1242;41159;-67
2022/01/09 04:08:57;;;;;;;23.40;12.50;;;;;2.10;96503.20;;;;111937;1242;41152;-67
2022/01/09 04:11:30;;;;;;;18.60;10.00;;;;;2.10;96495.20;;;;111869;1242;41462;-66
2022/01/09 04:13:59;;;;;;;19.40;10.10;;;;;2.10;96492.00;;;;111838;1243;41137;-64
2022/01/09 04:16:29;;;;;;;20.70;10.20;;;;;2.10;96479.20;;;;111472;1244;41137;-66
2022/01/09 04:18:59;;;;;;;17.70;9.40;;;;;2.10;96480.00;;;;111769;1241;41129;-67
2022/01/09 04:21:30;;;;;;;21.70;10.30;;;;;2.20;96485.60;;;;111741;1242;41764;-66
2022/01/09 04:24:00;;;;;;;17.50;9.10;;;;;2.20;96492.40;;;;111790;1243;41418;-66
2022/01/09 04:26:30;;;;;;;20.60;10.80;;;;;2.20;96491.80;;;;111735;1241;41886;-67
2022/01/09 04:29:00;;;;;;;21.50;10.50;;;;;2.20;96486.40;;;;111817;1241;41517;-67
2022/01/09 04:31:30;;;;;;;20.20;10.40;;;;;2.20;96490.60;;;;111785;1241;41444;-66
2022/01/09 04:34:00;;;;;;;21.70;10.90;;;;;2.20;96490.60;;;;111549;1244;41652;-67
2022/01/09 04:36:30;;;;;;;19.30;10.50;;;;;2.16;96491.60;;;;111753;1243;41140;-66
2022/01/09 04:38:59;;;;;;;22.40;10.40;;;;;2.18;96489.60;;;;111761;1241;41153;-67
2022/01/09 04:41:29;;;;;;;20.80;10.10;;;;;2.20;96486.00;;;;111749;1243;41236;-68
2022/01/09 04:43:59;;;;;;;18.30;10.10;;;;;2.20;96493.40;;;;111749;1241;41777;-67
2022/01/09 04:46:39;;;;;;;19.10;9.50;;;;;2.20;96493.60;;;;111790;1242;41130;-66
2022/01/09 04:49:09;;;;;;;17.90;9.80;;;;;2.20;96497.40;;;;111548;1242;41229;-65
2022/01/09 04:51:39;;;;;;;19.00;10.00;;;;;2.20;96493.40;;;;111769;1243;41981;-69
2022/01/09 04:54:08;;;;;;;17.20;9.00;;;;;2.20;96485.00;;;;111787;1241;42390;-66
2022/01/09 04:56:38;;;;;;;19.50;9.70;;;;;2.20;96484.00;;;;111351;1242;41135;-66
2022/01/09 04:59:08;;;;;;;22.30;11.30;;;;;2.26;96484.40;;;;111754;1241;41137;-65
2022/01/09 05:01:38;;;;;;;19.40;10.40;;;;;2.20;96486.00;;;;111797;1241;41105;-66
2022/01/09 05:04:07;;;;;;;18.90;9.90;;;;;2.20;96484.00;;;;111794;1241;41260;-68
2022/01/09 05:06:38;;;;;;;23.80;10.40;;;;;2.20;96481.20;;;;111761;1241;41142;-67
2022/01/09 05:09:10;;;;;;;19.50;9.90;;;;;2.20;96475.60;;;;111804;1241;41142;-67
2022/01/09 05:11:39;;;;;;;23.80;11.90;;;;;2.20;96478.20;;;;111678;1244;41180;-67
2022/01/09 05:14:09;;;;;;;21.70;10.30;;;;;2.20;96475.80;;;;111623;1241;41250;-66
2022/01/09 05:16:43;;;;;;;23.30;12.30;;;;;2.20;96478.60;;;;111762;1241;41178;-66
2022/01/09 05:19:18;;;;;;;23.20;11.60;;;;;2.20;96481.00;;;;111676;1241;41138;-67
2022/01/09 05:21:49;;;;;;;18.30;9.70;;;;;2.20;96479.40;;;;111437;1242;41465;-66
2022/01/09 05:24:18;;;;;;;20.60;9.50;;;;;2.14;96470.80;;;;111724;1242;41236;-68
2022/01/09 05:26:48;;;;;;;17.30;9.10;;;;;2.16;96470.00;;;;111547;1243;41138;-67
2022/01/09 05:29:18;;;;;;;18.70;9.70;;;;;2.20;96472.40;;;;111541;1244;41160;-67
2022/01/09 05:31:48;;;;;;;19.00;9.10;;;;;2.20;96470.20;;;;111749;1241;41261;-67
2022/01/09 05:34:18;;;;;;;18.70;9.70;;;;;2.22;96464.00;;;;111742;1242;42367;-67
2022/01/09 05:36:47;;;;;;;18.60;9.90;;;;;2.30;96468.00;;;;111785;1241;41146;-68
2022/01/09 05:39:16;;;;;;;21.50;11.40;;;;;2.30;96469.80;;;;111757;1241;41612;-67
2022/01/09 05:41:46;;;;;;;20.20;10.70;;;;;2.30;96472.20;;;;111545;1244;41140;-67
2022/01/09 05:44:17;;;;;;;18.40;9.80;;;;;2.28;96462.80;;;;111556;1243;41214;-66
2022/01/09 05:46:46;;;;;;;19.20;10.50;;;;;2.28;96461.60;;;;111709;1241;41162;-67
2022/01/09 05:49:16;;;;;;;19.70;10.20;;;;;2.30;96459.40;;;;111728;1242;41159;-66
2022/01/09 05:51:45;;;;;;;17.50;9.00;;;;;2.28;96461.80;;;;111822;1241;42376;-67
2022/01/09 05:54:15;;;;;;;18.60;9.70;;;;;2.30;96464.20;;;;111848;1241;41134;-67
2022/01/09 05:56:45;;;;;;;18.40;9.50;;;;;2.30;96463.80;;;;111811;1241;41588;-67
2022/01/09 05:59:14;;;;;;;20.20;10.10;;;;;2.30;96466.00;;;;111827;1241;41138;-66
2022/01/09 06:01:45;;;;;;;18.20;9.80;;;;;2.30;96468.80;;;;111708;1241;41897;-67
2022/01/09 06:04:14;;;;;;;20.80;10.30;;;;;2.28;96468.20;;;;111715;1241;41135;-65
2022/01/09 06:06:43;;;;;;;19.70;9.10;;;;;2.30;96475.60;;;;111736;1241;41634;-68
2022/01/09 06:09:13;;;;;;;17.10;8.40;;;;;2.30;96476.40;;;;111876;1241;42358;-67
2022/01/09 06:11:43;;;;;;;20.20;9.50;;;;;2.30;96485.60;;;;111846;1241;41923;-66
2022/01/09 06:14:12;;;;;;;19.20;9.90;;;;;2.40;96481.00;;;;111738;1241;41587;-68
2022/01/09 06:16:42;;;;;;;19.70;10.70;;;;;2.40;96479.40;;;;111694;1241;41816;-66
2022/01/09 06:19:12;;;;;;;19.70;10.20;;;;;2.40;96485.80;;;;111724;1242;41324;-68
2022/01/09 06:21:41;;;;;;;20.30;10.90;;;;;2.30;96480.20;;;;111670;1241;41266;-67
2022/01/09 06:24:10;;;;;;;19.70;10.20;;;;;2.30;96480.80;;;;111735;1241;41152;-67
2022/01/09 06:26:40;;;;;;;17.20;9.00;;;;;2.20;96479.00;;;;111803;1241;41317;-65
2022/01/09 06:29:09;;;;;;;17.40;9.10;;;;;2.20;96477.80;;;;111843;1240;41147;-65
2022/01/09 06:31:39;;;;;;;18.40;9.00;;;;;2.20;96479.80;;;;111800;1241;41498;-65
2022/01/09 06:34:08;;;;;;;19.20;10.40;;;;;2.20;96483.60;;;;111818;1241;42344;-66
2022/01/09 06:36:37;;;;;;;24.60;12.10;;;;;2.20;96480.20;;;;111793;1241;42557;-66
2022/01/09 06:39:07;;;;;;;20.10;10.20;;;;;2.20;96484.00;;;;111873;1241;41153;-66
2022/01/09 06:41:37;;;;;;;20.30;10.00;;;;;2.20;96482.00;;;;111869;1241;41587;-66
2022/01/09 06:44:06;;;;;;;19.40;9.60;;;;;2.20;96479.60;;;;111864;1241;41882;-66
2022/01/09 06:46:35;;;;;;;18.20;9.60;;;;;2.24;96478.60;;;;111755;1241;42261;-66
2022/01/09 06:49:04;;;;;;;18.40;8.90;;;;;2.30;96478.20;;;;111832;1241;41247;-66
2022/01/09 06:51:33;;;;;;;18.40;9.30;;;;;2.30;96483.60;;;;111843;1241;42300;-65
2022/01/09 06:54:03;;;;;;;19.00;9.40;;;;;2.30;96481.00;;;;111762;1241;41639;-66
2022/01/09 06:56:32;;;;;;;20.10;9.70;;;;;2.30;96483.20;;;;111692;1241;41176;-65
2022/01/09 06:59:02;;;;;;;18.90;9.50;;;;;2.30;96475.60;;;;111832;1241;42019;-67
2022/01/09 07:01:31;;;;;;;19.70;10.10;;;;;2.40;96475.60;;;;111762;1241;41413;-65
2022/01/09 07:04:01;;;;;;;22.10;11.70;;;;;2.40;96482.60;;;;111773;1241;41478;-67
2022/01/09 07:06:31;;;;;;;28.40;14.60;;;;;2.40;96483.40;;;;111848;1241;41945;-66
2022/01/09 07:09:00;;;;;;;32.90;17.60;;;;;2.40;96488.40;;;;111677;1241;41859;-67
2022/01/09 07:11:29;;;;;;;26.00;13.60;;;;;2.30;96490.40;;;;111831;1241;41141;-67
2022/01/09 07:13:58;;;;;;;20.30;10.10;;;;;2.30;96483.40;;;;111868;1241;42422;-66
2022/01/09 07:16:28;;;;;;;20.50;10.10;;;;;2.30;96477.80;;;;111745;1241;41151;-66
2022/01/09 07:18:58;;;;;;;21.20;11.20;;;;;2.30;96486.40;;;;111613;1244;41317;-67
2022/01/09 07:21:27;;;;;;;20.00;11.20;;;;;2.30;96482.80;;;;111773;1241;42547;-69
2022/01/09 07:23:56;;;;;;;21.50;10.00;;;;;2.30;96489.60;;;;111704;1242;41355;-69
2022/01/09 07:26:28;;;;;;;20.50;10.50;;;;;2.40;96486.80;;;;111802;1241;41711;-68
2022/01/09 07:28:58;;;;;;;23.00;10.40;;;;;2.40;96483.40;;;;111931;1241;41342;-67
2022/01/09 07:31:26;;;;;;;20.40;10.20;;;;;2.40;96485.20;;;;111916;1243;41716;-67
2022/01/09 07:33:55;;;;;;;20.50;10.30;;;;;2.40;96487.60;;;;111852;1241;41316;-67
2022/01/09 07:36:24;;;;;;;18.20;9.50;;;;;2.40;96480.20;;;;111956;1241;41150;-68
2022/01/09 07:38:53;;;;;;;18.50;9.60;;;;;2.40;96482.40;;;;111809;1241;41248;-67
2022/01/09 07:41:25;;;;;;;17.30;9.40;;;;;2.40;96488.20;;;;111829;1241;41620;-66
2022/01/09 07:43:54;;;;;;;19.30;10.30;;;;;2.36;96486.40;;;;111955;1241;41341;-67
2022/01/09 07:46:23;;;;;;;20.30;9.40;;;;;2.32;96485.20;;;;111933;1242;41445;-65
2022/01/09 07:48:51;;;;;;;21.00;10.80;;;;;2.32;96491.60;;;;111984;1241;42749;-66
2022/01/09 07:51:21;;;;;;;16.70;9.00;;;;;2.38;96491.00;;;;111773;1241;41582;-67
2022/01/09 07:54:05;;;;;;;17.80;8.90;;;;;2.40;96481.00;;;;111853;1241;41129;-66
2022/01/09 07:56:34;;;;;;;16.80;8.70;;;;;2.40;96479.40;;;;111832;1241;41598;-67
2022/01/09 07:59:03;;;;;;;16.70;9.00;;;;;2.46;96474.40;;;;111902;1241;41923;-66
2022/01/09 08:01:32;;;;;;;18.00;9.30;;;;;2.50;96474.60;;;;111868;1242;41256;-67
2022/01/09 08:04:01;;;;;;;15.10;7.90;;;;;2.50;96485.00;;;;111842;1241;41339;-66
2022/01/09 08:06:31;;;;;;;17.10;8.90;;;;;2.50;96482.20;;;;111830;1241;41650;-69
2022/01/09 08:09:00;;;;;;;16.30;8.20;;;;;2.60;96472.20;;;;111876;1241;42267;-69
2022/01/09 08:11:29;;;;;;;16.00;7.90;;;;;2.60;96475.60;;;;111757;1241;41616;-68
2022/01/09 08:13:59;;;;;;;16.00;8.50;;;;;2.70;96469.60;;;;111841;1241;41185;-68
2022/01/09 08:16:29;;;;;;;16.70;8.80;;;;;2.74;96465.60;;;;111839;1241;41127;-68
2022/01/09 08:18:58;;;;;;;17.90;8.60;;;;;2.80;96471.60;;;;111695;1242;41587;-66
2022/01/09 08:21:27;;;;;;;17.40;9.40;;;;;2.88;96473.20;;;;111755;1241;41178;-68
2022/01/09 08:23:56;;;;;;;20.10;9.90;;;;;2.90;96466.80;;;;111745;1241;41192;-68
2022/01/09 08:26:25;;;;;;;20.30;10.00;;;;;2.90;96474.40;;;;111842;1241;41169;-68
2022/01/09 08:28:55;;;;;;;18.20;9.50;;;;;2.90;96469.80;;;;111813;1241;41157;-68
2022/01/09 08:31:27;;;;;;;22.10;10.60;;;;;2.90;96470.60;;;;111519;1242;41271;-68
2022/01/09 08:33:57;;;;;;;18.80;9.20;;;;;2.90;96471.20;;;;111853;1241;41147;-66
2022/01/09 08:36:26;;;;;;;18.20;9.10;;;;;2.90;96466.80;;;;111858;1241;42547;-68
2022/01/09 08:38:54;;;;;;;23.50;9.90;;;;;3.00;96458.60;;;;111981;1241;41497;-66
2022/01/09 08:41:23;;;;;;;19.60;10.20;;;;;3.02;96457.40;;;;111978;1241;41139;-69
2022/01/09 08:43:52;;;;;;;20.00;9.90;;;;;3.10;96455.20;;;;111938;1241;41174;-69
2022/01/09 08:46:21;;;;;;;18.50;9.50;;;;;3.10;96451.80;;;;111894;1241;41170;-67
2022/01/09 08:48:50;;;;;;;17.80;8.90;;;;;3.18;96451.20;;;;111931;1241;41169;-68
2022/01/09 08:51:19;;;;;;;22.50;12.60;;;;;3.24;96451.20;;;;111828;1241;41138;-71
2022/01/09 08:53:50;;;;;;;23.00;12.10;;;;;3.22;96447.00;;;;111626;1242;41143;-68
2022/01/09 08:56:22;;;;;;;21.00;10.80;;;;;3.20;96441.80;;;;111767;1242;42608;-69
2022/01/09 08:58:52;;;;;;;24.30;11.50;;;;;3.20;96439.00;;;;111908;1241;41167;-69
2022/01/09 09:01:41;;;;;;;21.60;10.40;;;;;3.20;96441.40;;;;111507;1241;412067;-64
2022/01/09 09:04:11;;;;;;;19.00;10.10;;;;;3.20;96433.40;;;;111849;1241;41240;-69
2022/01/09 09:06:40;;;;;;;20.30;10.20;;;;;3.28;96433.00;;;;111749;1241;41114;-67
2022/01/09 09:09:10;;;;;;;19.70;10.60;;;;;3.30;96432.60;;;;111837;1241;41651;-67
2022/01/09 09:11:39;;;;;;;18.70;9.90;;;;;3.40;96424.00;;;;111828;1240;41985;-66
2022/01/09 09:14:08;;;;;;;25.40;13.10;;;;;3.40;96428.40;;;;111752;1242;42386;-66
2022/01/09 09:16:37;;;;;;;25.90;14.20;;;;;3.40;96431.60;;;;111806;1242;41169;-68
2022/01/09 09:19:06;;;;;;;97.60;36.80;;;;;3.40;96441.00;;;;111759;1241;41169;-67
2022/01/09 09:21:35;;;;;;;61.60;26.70;;;;;3.30;96433.00;;;;111774;1242;41263;-68
2022/01/09 09:24:05;;;;;;;38.30;18.50;;;;;3.40;96425.80;;;;111781;1241;42293;-68
2022/01/09 09:26:34;;;;;;;29.10;14.90;;;;;3.54;96432.60;;;;111675;1241;41151;-72
2022/01/09 09:29:05;;;;;;;20.70;11.80;;;;;3.60;96435.20;;;;111768;1241;41240;-68
2022/01/09 09:31:34;;;;;;;17.50;9.40;;;;;3.60;96427.00;;;;111776;1241;41918;-68
2022/01/09 09:34:05;;;;;;;15.00;8.20;;;;;3.68;96427.80;;;;111765;1241;41779;-66
2022/01/09 09:36:35;;;;;;;15.30;7.80;;;;;3.80;96428.00;;;;111765;1241;41539;-67
2022/01/09 09:39:05;;;;;;;19.60;10.00;;;;;3.98;96430.80;;;;111841;1241;41127;-66
2022/01/09 09:41:34;;;;;;;21.20;11.20;;;;;4.00;96426.20;;;;111743;1241;42150;-68
2022/01/09 09:44:07;;;;;;;22.30;11.50;;;;;4.10;96427.80;;;;111667;1241;41139;-69
2022/01/09 09:46:37;;;;;;;20.70;11.20;;;;;4.10;96426.40;;;;111870;1241;41140;-68
2022/01/09 09:49:06;;;;;;;46.90;23.20;;;;;4.10;96432.60;;;;111826;1241;41128;-69
2022/01/09 09:51:35;;;;;;;29.40;15.50;;;;;4.10;96436.00;;;;111832;1241;41173;-70
2022/01/09 09:54:04;;;;;;;18.40;10.70;;;;;4.00;96434.40;;;;111898;1241;41170;-67
2022/01/09 09:56:33;;;;;;;19.20;10.30;;;;;3.92;96428.40;;;;111750;1242;41136;-68
2022/01/09 09:59:02;;;;;;;16.00;8.70;;;;;3.86;96431.40;;;;111882;1241;41189;-67
2022/01/09 10:01:36;;;;;;;14.90;8.10;;;;;3.80;96430.00;;;;111848;1241;41134;-67
2022/01/09 10:04:08;;;;;;;17.00;9.20;;;;;3.80;96422.40;;;;111621;1242;41235;-67
2022/01/09 10:06:44;;;;;;;13.80;7.70;;;;;3.80;96419.00;;;;111810;1241;41135;-70
2022/01/09 10:09:20;;;;;;;13.80;7.80;;;;;3.80;96414.40;;;;111779;1241;41148;-70
2022/01/09 10:12:04;;;;;;;14.30;7.40;;;;;3.80;96415.80;;;;111857;1241;41133;-69
2022/01/09 10:14:34;;;;;;;14.70;7.60;;;;;3.90;96406.40;;;;111758;1241;41124;-66
2022/01/09 10:17:16;;;;;;;14.10;7.60;;;;;3.90;96423.20;;;;111683;1241;41128;-66
2022/01/09 10:19:49;;;;;;;14.00;7.20;;;;;4.00;96419.20;;;;111843;1241;41129;-69
2022/01/09 10:22:27;;;;;;;13.30;7.00;;;;;4.00;96411.20;;;;111819;1241;41651;-66
2022/01/09 10:24:57;;;;;;;12.60;6.60;;;;;4.10;96416.40;;;;111779;1241;41145;-67
2022/01/09 10:27:34;;;;;;;10.30;5.20;;;;;4.10;96405.20;;;;111788;1241;41657;-66
2022/01/09 10:30:04;;;;;;;9.60;4.40;;;;;4.22;96406.60;;;;111742;1241;41381;-67
2022/01/09 10:32:34;;;;;;;10.40;4.90;;;;;4.30;96407.20;;;;111850;1241;41918;-67
2022/01/09 10:35:18;;;;;;;12.00;5.20;;;;;4.40;96411.20;;;;111783;1241;41931;-66
2022/01/09 10:37:49;;;;;;;10.50;5.30;;;;;4.50;96403.80;;;;111890;1241;41607;-67
2022/01/09 10:40:23;;;;;;;10.70;5.50;;;;;4.50;96407.60;;;;111830;1241;42379;-65
2022/01/09 10:43:09;;;;;;;11.00;5.10;;;;;4.50;96403.60;;;;111910;1241;41143;-68
2022/01/09 10:45:41;;;;;;;10.40;5.40;;;;;4.60;96398.20;;;;111825;1241;41160;-68
2022/01/09 10:48:22;;;;;;;10.90;5.50;;;;;4.62;96397.60;;;;111756;1243;41169;-66
2022/01/09 10:50:52;;;;;;;12.50;5.80;;;;;4.70;96399.80;;;;111731;1241;41142;-66
2022/01/09 10:53:30;;;;;;;14.20;6.00;;;;;4.70;96398.20;;;;111717;1241;42026;-66
2022/01/09 10:56:08;;;;;;;12.20;6.60;;;;;4.80;96393.40;;;;111838;1241;41615;-68
2022/01/09 10:58:43;;;;;;;12.40;6.10;;;;;4.70;96394.40;;;;111854;1241;42365;-68
2022/01/09 11:01:21;;;;;;;10.40;5.20;;;;;4.74;96397.60;;;;111846;1241;41608;-68
2022/01/09 11:03:57;;;;;;;10.90;5.60;;;;;4.80;96396.60;;;;111712;1241;41743;-68
2022/01/09 11:06:30;;;;;;;11.70;5.30;;;;;4.80;96397.00;;;;111666;1241;41558;-69
2022/01/09 11:09:01;;;;;;;19.10;8.20;;;;;4.80;96394.40;;;;111734;1241;41128;-69
2022/01/09 11:11:35;;;;;;;34.10;14.70;;;;;4.80;96393.20;;;;111864;1241;41716;-67
2022/01/09 11:14:13;;;;;;;99.70;37.80;;;;;4.70;96394.20;;;;111895;1241;41621;-68
2022/01/09 11:16:51;;;;;;;33.90;16.70;;;;;4.70;96397.60;;;;111853;1241;41246;-69
2022/01/09 11:19:26;;;;;;;27.00;16.10;;;;;4.70;96393.80;;;;111782;1243;41409;-69
2022/01/09 11:22:01;;;;;;;23.40;13.90;;;;;4.68;96397.00;;;;111729;1241;41575;-69
2022/01/09 11:24:59;;;;;;;18.10;11.00;;;;;4.56;96401.00;;;;111774;1241;41151;-68
2022/01/09 11:27:44;;;;;;;13.30;7.60;;;;;4.50;96404.80;;;;111531;1241;41143;-69
2022/01/09 11:30:29;;;;;;;14.50;7.40;;;;;4.50;96397.20;;;;111660;1241;41139;-69
2022/01/09 11:33:25;;;;;;;12.00;6.00;;;;;4.50;96397.20;;;;111852;1240;40712;-70
2022/01/09 11:36:13;;;;;;;12.80;6.50;;;;;4.40;96393.20;;;;111719;1241;42433;-69
2022/01/09 11:39:00;;;;;;;13.60;7.20;;;;;4.40;96394.40;;;;111790;1241;41117;-71
2022/01/09 11:41:33;;;;;;;12.00;5.60;;;;;4.40;96395.80;;;;111905;1243;42441;-69
2022/01/09 11:44:08;;;;;;;12.50;5.80;;;;;4.40;96398.40;;;;111967;1241;41542;-69
2022/01/09 11:46:56;;;;;;;10.90;5.50;;;;;4.40;96400.40;;;;111970;1241;41404;-68
2022/01/09 11:49:39;;;;;;;10.50;5.90;;;;;4.40;96398.60;;;;111805;1241;42579;-68
2022/01/09 11:52:09;;;;;;;12.00;6.00;;;;;4.40;96397.40;;;;111877;1241;41150;-67
2022/01/09 11:55:04;;;;;;;10.30;5.50;;;;;4.40;96397.40;;;;111831;1241;41367;-67
2022/01/09 11:57:47;;;;;;;11.80;5.70;;;;;4.34;96390.40;;;;111823;1241;42062;-68
2022/01/09 12:00:36;;;;;;;11.30;5.90;;;;;4.30;96388.80;;;;111804;1241;41605;-67
2022/01/09 12:03:26;;;;;;;11.50;5.90;;;;;4.32;96387.00;;;;111820;1241;40936;-66
2022/01/09 12:06:09;;;;;;;10.00;5.20;;;;;4.40;96383.00;;;;111722;1241;41638;-65
2022/01/09 12:09:00;;;;;;;11.10;5.50;;;;;4.40;96370.40;;;;111710;1241;41132;-65
2022/01/09 12:12:03;;;;;;;10.60;5.40;;;;;4.50;96371.00;;;;111799;1241;41147;-66
2022/01/09 12:14:42;;;;;;;11.30;5.10;;;;;4.50;96370.00;;;;111642;1241;41121;-68
2022/01/09 12:17:29;;;;;;;11.10;5.20;;;;;4.60;96356.60;;;;111838;1241;41192;-66
2022/01/09 12:20:04;;;;;;;11.20;5.00;;;;;4.70;96350.00;;;;111947;1241;41132;-68
2022/01/09 12:22:53;;;;;;;9.90;4.80;;;;;4.74;96352.80;;;;112003;1241;41176;-68
2022/01/09 12:25:23;;;;;;;10.00;5.00;;;;;4.82;96349.20;;;;111970;1241;41242;-67